Terminal Aerodrome Forecast
Issued by NWS

Home | Current Version | Previous Version | Text Only | Print | Product List | Glossary On
Versions: 1 2 3 4 5 6 7 8 9 10 11 12
000
FTUS45 KTFX 061700
TAFBZN
TAF
KBZN 061720Z 0618/0718 VRB06KT P6SM SCT080 BKN200
     FM062000 26008KT P6SM SCT120 BKN200
     FM070300 VRB06KT P6SM BKN120
     FM071000 15006KT P6SM SCT200=

USA.gov is the U.S. government's official web portal to all federal, state and local government web resources and services.